sensor_id;sensor_type;location;lat;lon;timestamp;pressure;altitude;pressure_sealevel;temperature;humidity
51099;BME280;37146;48.210;16.234;2023-01-29T00:01:44;99810.22;;;-1.71;100.00
51099;BME280;37146;48.210;16.234;2023-01-29T00:04:09;99815.41;;;-1.74;100.00
51099;BME280;37146;48.210;16.234;2023-01-29T00:06:35;99819.00;;;-1.68;100.00
51099;BME280;37146;48.210;16.234;2023-01-29T00:09:00;99820.66;;;-1.74;100.00
51099;BME280;37146;48.210;16.234;2023-01-29T00:11:25;99817.13;;;-1.79;100.00
51099;BME280;37146;48.210;16.234;2023-01-29T00:13:51;99819.69;;;-1.83;100.00
51099;BME280;37146;48.210;16.234;2023-01-29T00:16:16;99825.00;;;-1.79;100.00
51099;BME280;37146;48.210;16.234;2023-01-29T00:18:42;99828.53;;;-1.75;100.00
51099;BME280;37146;48.210;16.234;2023-01-29T00:21:14;99820.53;;;-1.86;100.00
51099;BME280;37146;48.210;16.234;2023-01-29T00:23:39;99819.66;;;-1.85;100.00
51099;BME280;37146;48.210;16.234;2023-01-29T00:26:05;99821.38;;;-1.90;100.00
51099;BME280;37146;48.210;16.234;2023-01-29T00:28:30;99827.47;;;-1.90;100.00
51099;BME280;37146;48.210;16.234;2023-01-29T00:30:56;99830.19;;;-1.82;100.00
51099;BME280;37146;48.210;16.234;2023-01-29T00:33:21;99824.00;;;-1.87;100.00
51099;BME280;37146;48.210;16.234;2023-01-29T00:35:46;99817.94;;;-1.81;100.00
51099;BME280;37146;48.210;16.234;2023-01-29T00:38:11;99821.50;;;-1.78;100.00
51099;BME280;37146;48.210;16.234;2023-01-29T00:40:37;99814.50;;;-1.79;100.00
51099;BME280;37146;48.210;16.234;2023-01-29T00:43:21;99812.69;;;-1.84;100.00
51099;BME280;37146;48.210;16.234;2023-01-29T00:46:05;99801.28;;;-1.88;100.00
51099;BME280;37146;48.210;16.234;2023-01-29T00:48:31;99796.88;;;-1.92;100.00
51099;BME280;37146;48.210;16.234;2023-01-29T00:50:56;99795.09;;;-1.93;100.00
51099;BME280;37146;48.210;16.234;2023-01-29T00:53:21;99803.88;;;-1.91;100.00
51099;BME280;37146;48.210;16.234;2023-01-29T00:55:46;99804.69;;;-1.95;100.00
51099;BME280;37146;48.210;16.234;2023-01-29T00:58:12;99804.69;;;-1.98;100.00
51099;BME280;37146;48.210;16.234;2023-01-29T01:00:37;99806.41;;;-1.97;100.00
51099;BME280;37146;48.210;16.234;2023-01-29T01:03:02;99804.72;;;-1.92;100.00
51099;BME280;37146;48.210;16.234;2023-01-29T01:05:30;99811.66;;;-1.97;100.00
51099;BME280;37146;48.210;16.234;2023-01-29T01:07:56;99809.91;;;-1.98;100.00
51099;BME280;37146;48.210;16.234;2023-01-29T01:10:23;99821.28;;;-1.98;100.00
51099;BME280;37146;48.210;16.234;2023-01-29T01:15:14;99827.31;;;-2.04;100.00
51099;BME280;37146;48.210;16.234;2023-01-29T01:17:40;99828.16;;;-2.06;100.00
51099;BME280;37146;48.210;16.234;2023-01-29T01:20:05;99827.47;;;-1.91;100.00
51099;BME280;37146;48.210;16.234;2023-01-29T01:22:31;99827.38;;;-1.97;100.00
51099;BME280;37146;48.210;16.234;2023-01-29T01:24:56;99820.38;;;-2.00;100.00
51099;BME280;37146;48.210;16.234;2023-01-29T01:27:21;99816.06;;;-1.95;100.00
51099;BME280;37146;48.210;16.234;2023-01-29T01:29:46;99819.50;;;-1.97;100.00
51099;BME280;37146;48.210;16.234;2023-01-29T01:32:12;99812.41;;;-2.08;100.00
51099;BME280;37146;48.210;16.234;2023-01-29T01:34:38;99808.91;;;-2.10;100.00
51099;BME280;37146;48.210;16.234;2023-01-29T01:37:03;99819.47;;;-2.02;100.00
51099;BME280;37146;48.210;16.234;2023-01-29T01:39:28;99806.19;;;-2.16;100.00
51099;BME280;37146;48.210;16.234;2023-01-29T01:41:54;99812.34;;;-2.12;100.00
51099;BME280;37146;48.210;16.234;2023-01-29T01:47:03;99819.28;;;-2.16;100.00
51099;BME280;37146;48.210;16.234;2023-01-29T01:49:28;99822.03;;;-2.07;100.00
51099;BME280;37146;48.210;16.234;2023-01-29T01:51:54;99815.00;;;-2.11;100.00
51099;BME280;37146;48.210;16.234;2023-01-29T01:56:45;99818.38;;;-2.20;100.00
51099;BME280;37146;48.210;16.234;2023-01-29T01:59:14;99819.34;;;-2.13;100.00
51099;BME280;37146;48.210;16.234;2023-01-29T02:01:40;99817.53;;;-2.19;100.00
51099;BME280;37146;48.210;16.234;2023-01-29T02:04:11;99821.06;;;-2.13;100.00
51099;BME280;37146;48.210;16.234;2023-01-29T02:06:56;99820.09;;;-2.20;100.00
51099;BME280;37146;48.210;16.234;2023-01-29T02:09:43;99821.91;;;-2.14;100.00
51099;BME280;37146;48.210;16.234;2023-01-29T02:12:11;99831.47;;;-2.20;100.00
51099;BME280;37146;48.210;16.234;2023-01-29T02:14:37;99823.59;;;-2.21;100.00
51099;BME280;37146;48.210;16.234;2023-01-29T02:17:04;99827.09;;;-2.19;100.00
51099;BME280;37146;48.210;16.234;2023-01-29T02:27:08;99837.56;;;-2.22;100.00
51099;BME280;37146;48.210;16.234;2023-01-29T02:29:41;99835.81;;;-2.23;100.00
51099;BME280;37146;48.210;16.234;2023-01-29T02:34:45;99841.91;;;-2.23;100.00
51099;BME280;37146;48.210;16.234;2023-01-29T02:40:29;99832.22;;;-2.31;100.00
51099;BME280;37146;48.210;16.234;2023-01-29T02:45:21;99834.84;;;-2.30;100.00
51099;BME280;37146;48.210;16.234;2023-01-29T02:47:57;99837.41;;;-2.35;100.00
51099;BME280;37146;48.210;16.234;2023-01-29T02:53:09;99837.41;;;-2.35;100.00
51099;BME280;37146;48.210;16.234;2023-01-29T02:55:45;99848.75;;;-2.34;100.00
51099;BME280;37146;48.210;16.234;2023-01-29T02:58:16;99849.53;;;-2.40;100.00
51099;BME280;37146;48.210;16.234;2023-01-29T03:00:44;99855.75;;;-2.33;100.00
51099;BME280;37146;48.210;16.234;2023-01-29T03:05:39;99863.53;;;-2.38;100.00
51099;BME280;37146;48.210;16.234;2023-01-29T03:08:09;99856.66;;;-2.33;100.00
51099;BME280;37146;48.210;16.234;2023-01-29T03:10:52;99860.13;;;-2.32;100.00
51099;BME280;37146;48.210;16.234;2023-01-29T03:15:52;99860.91;;;-2.39;100.00
51099;BME280;37146;48.210;16.234;2023-01-29T03:18:26;99860.91;;;-2.39;100.00
51099;BME280;37146;48.210;16.234;2023-01-29T03:20:56;99867.88;;;-2.40;100.00
51099;BME280;37146;48.210;16.234;2023-01-29T03:23:24;99865.19;;;-2.46;100.00
51099;BME280;37146;48.210;16.234;2023-01-29T03:25:54;99869.59;;;-2.42;100.00
51099;BME280;37146;48.210;16.234;2023-01-29T03:28:41;99869.56;;;-2.43;100.00
51099;BME280;37146;48.210;16.234;2023-01-29T03:31:27;99868.66;;;-2.49;100.00
51099;BME280;37146;48.210;16.234;2023-01-29T03:34:12;99862.56;;;-2.46;100.00
51099;BME280;37146;48.210;16.234;2023-01-29T03:36:45;99865.94;;;-2.53;100.00
51099;BME280;37146;48.210;16.234;2023-01-29T03:39:15;99861.72;;;-2.45;100.00
51099;BME280;37146;48.210;16.234;2023-01-29T03:41:46;99866.13;;;-2.41;100.00
51099;BME280;37146;48.210;16.234;2023-01-29T03:44:34;99853.84;;;-2.43;100.00
51099;BME280;37146;48.210;16.234;2023-01-29T03:55:12;99838.09;;;-2.46;100.00
51099;BME280;37146;48.210;16.234;2023-01-29T03:57:20;99831.03;;;-2.52;100.00
51099;BME280;37146;48.210;16.234;2023-01-29T04:05:18;99824.91;;;-2.54;100.00
51099;BME280;37146;48.210;16.234;2023-01-29T04:07:45;99814.31;;;-2.60;100.00
51099;BME280;37146;48.210;16.234;2023-01-29T04:10:12;99811.59;;;-2.68;100.00
51099;BME280;37146;48.210;16.234;2023-01-29T04:12:59;99811.66;;;-2.64;100.00
51099;BME280;37146;48.210;16.234;2023-01-29T04:15:27;99809.75;;;-2.74;100.00
51099;BME280;37146;48.210;16.234;2023-01-29T04:17:54;99815.00;;;-2.74;100.00
51099;BME280;37146;48.210;16.234;2023-01-29T04:20:20;99810.53;;;-2.80;100.00
51099;BME280;37146;48.210;16.234;2023-01-29T04:22:47;99807.06;;;-2.80;100.00
51099;BME280;37146;48.210;16.234;2023-01-29T04:25:13;99810.53;;;-2.81;100.00
51099;BME280;37146;48.210;16.234;2023-01-29T04:27:42;99809.66;;;-2.80;100.00
51099;BME280;37146;48.210;16.234;2023-01-29T04:30:16;99813.16;;;-2.80;100.00
51099;BME280;37146;48.210;16.234;2023-01-29T04:40:43;99820.94;;;-2.84;100.00
51099;BME280;37146;48.210;16.234;2023-01-29T04:43:26;99827.94;;;-2.83;100.00
51099;BME280;37146;48.210;16.234;2023-01-29T04:46:12;99837.69;;;-2.74;100.00
51099;BME280;37146;48.210;16.234;2023-01-29T04:51:09;99834.16;;;-2.78;100.00
51099;BME280;37146;48.210;16.234;2023-01-29T04:53:43;99836.66;;;-2.84;100.00
51099;BME280;37146;48.210;16.234;2023-01-29T04:58:43;99854.00;;;-2.91;100.00
51099;BME280;37146;48.210;16.234;2023-01-29T05:01:12;99856.63;;;-2.91;100.00
51099;BME280;37146;48.210;16.234;2023-01-29T05:03:39;99850.31;;;-3.02;100.00
51099;BME280;37146;48.210;16.234;2023-01-29T05:06:05;99853.75;;;-3.06;100.00
51099;BME280;37146;48.210;16.234;2023-01-29T05:08:31;99858.00;;;-3.12;100.00
51099;BME280;37146;48.210;16.234;2023-01-29T05:10:58;99854.38;;;-3.21;100.00
51099;BME280;37146;48.210;16.234;2023-01-29T05:13:23;99854.53;;;-3.11;100.00
51099;BME280;37146;48.210;16.234;2023-01-29T05:15:56;99850.16;;;-3.13;100.00
51099;BME280;37146;48.210;16.234;2023-01-29T05:18:24;99849.22;;;-3.17;100.00
51099;BME280;37146;48.210;16.234;2023-01-29T05:20:49;99832.75;;;-3.09;100.00
51099;BME280;37146;48.210;16.234;2023-01-29T05:23:16;99837.97;;;-3.11;100.00
51099;BME280;37146;48.210;16.234;2023-01-29T05:25:42;99836.84;;;-3.26;100.00
51099;BME280;37146;48.210;16.234;2023-01-29T05:28:08;99835.94;;;-3.28;100.00
51099;BME280;37146;48.210;16.234;2023-01-29T05:33:10;99823.69;;;-3.30;100.00
51099;BME280;37146;48.210;16.234;2023-01-29T05:35:36;99832.47;;;-3.27;100.00
51099;BME280;37146;48.210;16.234;2023-01-29T05:38:01;99830.69;;;-3.31;100.00
51099;BME280;37146;48.210;16.234;2023-01-29T05:40:26;99821.00;;;-3.33;100.00
51099;BME280;37146;48.210;16.234;2023-01-29T05:42:52;99829.75;;;-3.33;100.00
51099;BME280;37146;48.210;16.234;2023-01-29T05:45:17;99827.09;;;-3.34;100.00
51099;BME280;37146;48.210;16.234;2023-01-29T05:47:43;99834.75;;;-3.45;100.00
51099;BME280;37146;48.210;16.234;2023-01-29T05:50:08;99821.91;;;-3.33;100.00
51099;BME280;37146;48.210;16.234;2023-01-29T05:52:33;99827.00;;;-3.39;100.00
51099;BME280;37146;48.210;16.234;2023-01-29T05:54:59;99828.84;;;-3.35;100.00
51099;BME280;37146;48.210;16.234;2023-01-29T05:57:24;99832.22;;;-3.42;100.00
51099;BME280;37146;48.210;16.234;2023-01-29T05:59:49;99828.75;;;-3.39;100.00
51099;BME280;37146;48.210;16.234;2023-01-29T06:02:14;99830.47;;;-3.40;100.00
51099;BME280;37146;48.210;16.234;2023-01-29T06:04:39;99826.91;;;-3.45;100.00
51099;BME280;37146;48.210;16.234;2023-01-29T06:07:05;99826.03;;;-3.46;100.00
51099;BME280;37146;48.210;16.234;2023-01-29T06:09:30;99822.53;;;-3.48;100.00
51099;BME280;37146;48.210;16.234;2023-01-29T06:11:56;99819.09;;;-3.44;100.00
51099;BME280;37146;48.210;16.234;2023-01-29T06:14:21;99828.72;;;-3.41;100.00
51099;BME280;37146;48.210;16.234;2023-01-29T06:16:46;99833.16;;;-3.38;100.00
51099;BME280;37146;48.210;16.234;2023-01-29T06:19:11;99824.31;;;-3.44;100.00
51099;BME280;37146;48.210;16.234;2023-01-29T06:21:37;99823.47;;;-3.41;100.00
51099;BME280;37146;48.210;16.234;2023-01-29T06:24:02;99835.56;;;-3.49;100.00
51099;BME280;37146;48.210;16.234;2023-01-29T06:26:27;99835.69;;;-3.43;100.00
51099;BME280;37146;48.210;16.234;2023-01-29T06:28:52;99842.47;;;-3.51;100.00
51099;BME280;37146;48.210;16.234;2023-01-29T06:31:18;99842.69;;;-3.42;100.00
51099;BME280;37146;48.210;16.234;2023-01-29T06:33:43;99835.56;;;-3.49;100.00
51099;BME280;37146;48.210;16.234;2023-01-29T06:36:08;99834.56;;;-3.56;100.00
51099;BME280;37146;48.210;16.234;2023-01-29T06:38:33;99832.00;;;-3.53;100.00
51099;BME280;37146;48.210;16.234;2023-01-29T06:40:59;99844.22;;;-3.53;100.00
51099;BME280;37146;48.210;16.234;2023-01-29T06:43:24;99835.38;;;-3.59;100.00
51099;BME280;37146;48.210;16.234;2023-01-29T06:45:50;99845.84;;;-3.57;100.00
51099;BME280;37146;48.210;16.234;2023-01-29T06:48:16;99837.97;;;-3.60;100.00
51099;BME280;37146;48.210;16.234;2023-01-29T06:50:42;99851.28;;;-3.48;100.00
51099;BME280;37146;48.210;16.234;2023-01-29T06:53:07;99842.28;;;-3.64;100.00
51099;BME280;37146;48.210;16.234;2023-01-29T06:55:32;99837.06;;;-3.62;100.00
51099;BME280;37146;48.210;16.234;2023-01-29T06:57:58;99834.44;;;-3.64;100.00
51099;BME280;37146;48.210;16.234;2023-01-29T07:00:23;99836.22;;;-3.60;100.00
51099;BME280;37146;48.210;16.234;2023-01-29T07:02:48;99824.69;;;-3.71;100.00
51099;BME280;37146;48.210;16.234;2023-01-29T07:05:14;99815.75;;;-3.84;100.00
51099;BME280;37146;48.210;16.234;2023-01-29T07:07:39;99827.47;;;-3.63;100.00
51099;BME280;37146;48.210;16.234;2023-01-29T07:10:04;99815.25;;;-3.63;100.00
51099;BME280;37146;48.210;16.234;2023-01-29T07:12:30;99812.50;;;-3.70;100.00
51099;BME280;37146;48.210;16.234;2023-01-29T07:14:55;99809.94;;;-3.67;100.00
51099;BME280;37146;48.210;16.234;2023-01-29T07:17:20;99816.16;;;-3.61;100.00
51099;BME280;37146;48.210;16.234;2023-01-29T07:19:45;99815.09;;;-3.72;100.00
51099;BME280;37146;48.210;16.234;2023-01-29T07:22:10;99816.28;;;-3.54;100.00
51099;BME280;37146;48.210;16.234;2023-01-29T07:24:36;99816.94;;;-3.66;96.12
51099;BME280;37146;48.210;16.234;2023-01-29T07:27:01;99830.84;;;-3.69;100.00
51099;BME280;37146;48.210;16.234;2023-01-29T07:29:26;99824.06;;;-3.59;98.11
51099;BME280;37146;48.210;16.234;2023-01-29T07:31:51;99824.84;;;-3.62;98.21
51099;BME280;37146;48.210;16.234;2023-01-29T07:34:16;99830.81;;;-3.70;98.22
51099;BME280;37146;48.210;16.234;2023-01-29T07:36:42;99825.03;;;-3.52;100.00
51099;BME280;37146;48.210;16.234;2023-01-29T07:39:07;99823.06;;;-3.64;97.15
51099;BME280;37146;48.210;16.234;2023-01-29T07:41:32;99825.59;;;-3.69;99.04
51099;BME280;37146;48.210;16.234;2023-01-29T07:43:57;99823.19;;;-3.58;98.59
51099;BME280;37146;48.210;16.234;2023-01-29T07:46:23;99826.84;;;-3.48;98.94
51099;BME280;37146;48.210;16.234;2023-01-29T07:48:48;99819.16;;;-3.39;97.89
51099;BME280;37146;48.210;16.234;2023-01-29T07:51:13;99822.53;;;-3.48;97.57
51099;BME280;37146;48.210;16.234;2023-01-29T07:53:38;99819.13;;;-3.42;100.00
51099;BME280;37146;48.210;16.234;2023-01-29T07:56:04;99817.25;;;-3.49;98.41
51099;BME280;37146;48.210;16.234;2023-01-29T07:58:29;99832.69;;;-3.62;97.64
51099;BME280;37146;48.210;16.234;2023-01-29T08:00:54;99833.69;;;-3.57;97.21
51099;BME280;37146;48.210;16.234;2023-01-29T08:03:20;99836.53;;;-3.44;98.23
51099;BME280;37146;48.210;16.234;2023-01-29T08:05:45;99839.06;;;-3.47;98.35
51099;BME280;37146;48.210;16.234;2023-01-29T08:08:10;99836.91;;;-3.70;98.13
51099;BME280;37146;48.210;16.234;2023-01-29T08:10:37;99848.72;;;-3.45;100.00
51099;BME280;37146;48.210;16.234;2023-01-29T08:13:03;99837.59;;;-3.33;100.00
51099;BME280;37146;48.210;16.234;2023-01-29T08:15:28;99846.41;;;-3.28;96.83
51099;BME280;37146;48.210;16.234;2023-01-29T08:17:54;99836.91;;;-3.22;96.30
51099;BME280;37146;48.210;16.234;2023-01-29T08:20:19;99846.47;;;-3.24;97.66
51099;BME280;37146;48.210;16.234;2023-01-29T08:22:45;99845.38;;;-3.37;96.92
51099;BME280;37146;48.210;16.234;2023-01-29T08:25:10;99840.47;;;-3.19;95.63
51099;BME280;37146;48.210;16.234;2023-01-29T08:27:35;99834.91;;;-3.37;96.47
51099;BME280;37146;48.210;16.234;2023-01-29T08:30:01;99841.94;;;-3.33;97.58
51099;BME280;37146;48.210;16.234;2023-01-29T08:32:28;99847.13;;;-3.36;95.49
51099;BME280;37146;48.210;16.234;2023-01-29T08:34:53;99848.09;;;-3.30;96.63
51099;BME280;37146;48.210;16.234;2023-01-29T08:37:18;99863.06;;;-3.22;95.85
51099;BME280;37146;48.210;16.234;2023-01-29T08:39:44;99872.78;;;-3.15;98.61
51099;BME280;37146;48.210;16.234;2023-01-29T08:42:09;99871.72;;;-3.25;97.96
51099;BME280;37146;48.210;16.234;2023-01-29T08:44:34;99870.63;;;-3.38;97.22
51099;BME280;37146;48.210;16.234;2023-01-29T08:46:59;99868.94;;;-3.34;97.76
51099;BME280;37146;48.210;16.234;2023-01-29T08:49:25;99873.63;;;-3.18;96.99
51099;BME280;37146;48.210;16.234;2023-01-29T08:51:50;99874.38;;;-3.23;96.68
51099;BME280;37146;48.210;16.234;2023-01-29T08:54:15;99882.13;;;-3.30;95.86
51099;BME280;37146;48.210;16.234;2023-01-29T08:56:41;99879.63;;;-3.23;96.58
51099;BME280;37146;48.210;16.234;2023-01-29T08:59:06;99883.03;;;-3.28;97.58
51099;BME280;37146;48.210;16.234;2023-01-29T09:01:31;99880.41;;;-3.29;97.68
51099;BME280;37146;48.210;16.234;2023-01-29T09:03:56;99886.56;;;-3.26;95.52
51099;BME280;37146;48.210;16.234;2023-01-29T09:06:21;99879.63;;;-3.22;93.56
51099;BME280;37146;48.210;16.234;2023-01-29T09:08:47;99885.00;;;-3.16;94.87
51099;BME280;37146;48.210;16.234;2023-01-29T09:11:13;99890.47;;;-3.02;94.97
51099;BME280;37146;48.210;16.234;2023-01-29T09:13:38;99887.66;;;-3.13;92.60
51099;BME280;37146;48.210;16.234;2023-01-29T09:16:04;99881.00;;;-2.93;92.50
51099;BME280;37146;48.210;16.234;2023-01-29T09:18:29;99883.47;;;-3.04;91.52
51099;BME280;37146;48.210;16.234;2023-01-29T09:20:54;99885.31;;;-2.97;92.27
51099;BME280;37146;48.210;16.234;2023-01-29T09:23:20;99889.69;;;-2.98;93.11
51099;BME280;37146;48.210;16.234;2023-01-29T09:25:45;99881.91;;;-2.91;92.08
51099;BME280;37146;48.210;16.234;2023-01-29T09:28:11;99882.06;;;-2.82;94.20
51099;BME280;37146;48.210;16.234;2023-01-29T09:30:36;99878.81;;;-2.69;91.97
51099;BME280;37146;48.210;16.234;2023-01-29T09:33:05;99885.28;;;-2.43;91.58
51099;BME280;37146;48.210;16.234;2023-01-29T09:35:31;99883.63;;;-2.38;90.68
51099;BME280;37146;48.210;16.234;2023-01-29T09:37:56;99874.81;;;-1.79;89.35
51099;BME280;37146;48.210;16.234;2023-01-29T09:40:23;99873.47;;;-1.43;86.23
51099;BME280;37146;48.210;16.234;2023-01-29T09:42:51;99869.88;;;-1.52;89.99
51099;BME280;37146;48.210;16.234;2023-01-29T09:45:23;99873.56;;;-1.36;88.76
51099;BME280;37146;48.210;16.234;2023-01-29T09:47:49;99878.66;;;-1.49;86.73
51099;BME280;37146;48.210;16.234;2023-01-29T09:50:22;99880.31;;;-1.57;87.78
51099;BME280;37146;48.210;16.234;2023-01-29T09:52:58;99882.84;;;-1.66;90.01
51099;BME280;37146;48.210;16.234;2023-01-29T09:55:26;99885.31;;;-1.76;91.03
51099;BME280;37146;48.210;16.234;2023-01-29T09:57:59;99876.97;;;-1.44;86.56
51099;BME280;37146;48.210;16.234;2023-01-29T10:13:42;99881.34;;;-0.45;82.40
51099;BME280;37146;48.210;16.234;2023-01-29T10:24:25;99867.59;;;2.52;71.60
51099;BME280;37146;48.210;16.234;2023-01-29T10:26:42;99862.97;;;2.89;65.87
51099;BME280;37146;48.210;16.234;2023-01-29T10:29:09;99859.53;;;2.76;68.03
51099;BME280;37146;48.210;16.234;2023-01-29T10:31:38;99845.94;;;1.44;70.72
51099;BME280;37146;48.210;16.234;2023-01-29T10:34:13;99845.03;;;0.68;75.26
51099;BME280;37146;48.210;16.234;2023-01-29T10:36:47;99853.81;;;0.71;76.93
51099;BME280;37146;48.210;16.234;2023-01-29T10:39:19;99849.44;;;1.40;73.08
51099;BME280;37146;48.210;16.234;2023-01-29T10:41:51;99821.28;;;1.61;73.83
51099;BME280;37146;48.210;16.234;2023-01-29T10:57:07;99828.03;;;-0.26;78.88
51099;BME280;37146;48.210;16.234;2023-01-29T10:59:43;99830.69;;;-0.20;79.12
51099;BME280;37146;48.210;16.234;2023-01-29T11:02:16;99832.13;;;-0.65;82.09
51099;BME280;37146;48.210;16.234;2023-01-29T11:04:42;99831.44;;;-0.38;82.03
51099;BME280;37146;48.210;16.234;2023-01-29T11:07:07;99821.53;;;-0.81;81.96
51099;BME280;37146;48.210;16.234;2023-01-29T11:09:38;99832.09;;;-0.76;82.10
51099;BME280;37146;48.210;16.234;2023-01-29T11:12:15;99832.09;;;-0.74;82.16
51099;BME280;37146;48.210;16.234;2023-01-29T11:14:47;99825.03;;;-0.80;81.01
51099;BME280;37146;48.210;16.234;2023-01-29T11:17:19;99827.41;;;-1.13;82.35
51099;BME280;37146;48.210;16.234;2023-01-29T11:19:45;99822.22;;;-1.03;84.27
51099;BME280;37146;48.210;16.234;2023-01-29T11:22:13;99797.94;;;-0.76;82.09
51099;BME280;37146;48.210;16.234;2023-01-29T11:24:39;99797.06;;;-0.75;81.14
51099;BME280;37146;48.210;16.234;2023-01-29T11:27:12;99787.47;;;-0.71;81.98
51099;BME280;37146;48.210;16.234;2023-01-29T11:29:38;99776.34;;;-0.24;80.17
51099;BME280;37146;48.210;16.234;2023-01-29T11:32:51;99771.91;;;-0.34;80.66
51099;BME280;37146;48.210;16.234;2023-01-29T11:37:22;99757.16;;;0.14;78.55
51099;BME280;37146;48.210;16.234;2023-01-29T11:39:47;99756.28;;;0.17;77.73
51099;BME280;37146;48.210;16.234;2023-01-29T11:42:20;99746.69;;;0.16;78.61
51099;BME280;37146;48.210;16.234;2023-01-29T11:44:46;99746.66;;;0.08;78.77
51099;BME280;37146;48.210;16.234;2023-01-29T11:49:37;99729.19;;;0.75;77.51
51099;BME280;37146;48.210;16.234;2023-01-29T11:52:03;99730.84;;;1.42;70.81
51099;BME280;37146;48.210;16.234;2023-01-29T11:54:52;99723.91;;;0.27;75.13
51099;BME280;37146;48.210;16.234;2023-01-29T11:57:21;99722.00;;;-0.22;77.58
51099;BME280;37146;48.210;16.234;2023-01-29T11:59:48;99704.59;;;0.83;74.69
51099;BME280;37146;48.210;16.234;2023-01-29T12:02:58;99706.34;;;0.45;77.01
51099;BME280;37146;48.210;16.234;2023-01-29T12:05:04;99700.09;;;-0.28;77.41
51099;BME280;37146;48.210;16.234;2023-01-29T12:07:30;99692.31;;;0.82;76.91
51099;BME280;37146;48.210;16.234;2023-01-29T12:09:56;99680.88;;;0.95;75.58
51099;BME280;37146;48.210;16.234;2023-01-29T12:12:30;99671.16;;;1.16;74.24
51099;BME280;37146;48.210;16.234;2023-01-29T12:17:40;99661.63;;;0.57;78.47
51099;BME280;37146;48.210;16.234;2023-01-29T12:20:11;99659.84;;;0.56;78.04
51099;BME280;37146;48.210;16.234;2023-01-29T12:25:06;99652.84;;;0.55;78.50
51099;BME280;37146;48.210;16.234;2023-01-29T12:30:06;99648.47;;;0.09;81.29
51099;BME280;37146;48.210;16.234;2023-01-29T12:37:50;99645.81;;;0.23;82.73
51099;BME280;37146;48.210;16.234;2023-01-29T12:40:18;99636.19;;;0.39;80.05
51099;BME280;37146;48.210;16.234;2023-01-29T12:42:50;99649.28;;;-0.23;81.48
51099;BME280;37146;48.210;16.234;2023-01-29T12:45:18;99643.19;;;0.59;81.66
51099;BME280;37146;48.210;16.234;2023-01-29T12:47:49;99635.25;;;0.73;80.17
51099;BME280;37146;48.210;16.234;2023-01-29T12:52:45;99632.66;;;0.17;80.15
51099;BME280;37146;48.210;16.234;2023-01-29T12:55:15;99639.66;;;-0.14;82.14
51099;BME280;37146;48.210;16.234;2023-01-29T12:57:46;99644.91;;;-0.08;82.67
51099;BME280;37146;48.210;16.234;2023-01-29T13:00:14;99635.25;;;-0.29;82.29
51099;BME280;37146;48.210;16.234;2023-01-29T13:05:44;99622.13;;;0.03;81.70
51099;BME280;37146;48.210;16.234;2023-01-29T13:08:13;99619.44;;;-0.36;82.01
51099;BME280;37146;48.210;16.234;2023-01-29T13:10:42;99615.03;;;-0.48;84.84
51099;BME280;37146;48.210;16.234;2023-01-29T13:13:13;99610.69;;;-0.30;83.80
51099;BME280;37146;48.210;16.234;2023-01-29T13:15:40;99612.47;;;-0.10;80.17
51099;BME280;37146;48.210;16.234;2023-01-29T13:18:16;99609.88;;;0.04;81.83
51099;BME280;37146;48.210;16.234;2023-01-29T13:20:45;99599.34;;;-0.01;83.17
51099;BME280;37146;48.210;16.234;2023-01-29T13:23:19;99609.84;;;-0.09;84.00
51099;BME280;37146;48.210;16.234;2023-01-29T13:25:48;99611.59;;;0.03;83.46
51099;BME280;37146;48.210;16.234;2023-01-29T13:28:23;99606.31;;;-0.25;85.76
51099;BME280;37146;48.210;16.234;2023-01-29T13:33:33;99601.03;;;-0.31;85.25
51099;BME280;37146;48.210;16.234;2023-01-29T13:35:58;99604.59;;;-0.07;85.51
51099;BME280;37146;48.210;16.234;2023-01-29T13:38:25;99602.81;;;-0.21;85.19
51099;BME280;37146;48.210;16.234;2023-01-29T13:40:51;99603.72;;;-0.06;85.32
51099;BME280;37146;48.210;16.234;2023-01-29T13:43:20;99596.72;;;-0.09;84.21
51099;BME280;37146;48.210;16.234;2023-01-29T13:45:46;99596.69;;;-0.15;83.90
51099;BME280;37146;48.210;16.234;2023-01-29T13:48:20;99592.31;;;-0.24;86.41
51099;BME280;37146;48.210;16.234;2023-01-29T13:50:47;99600.19;;;-0.25;86.60
51099;BME280;37146;48.210;16.234;2023-01-29T13:55:46;99597.56;;;-0.24;86.04
51099;BME280;37146;48.210;16.234;2023-01-29T13:58:15;99595.78;;;-0.37;85.40
51099;BME280;37146;48.210;16.234;2023-01-29T14:05:40;99600.09;;;-0.59;87.12
51099;BME280;37146;48.210;16.234;2023-01-29T14:10:37;99604.44;;;-0.72;88.32
51099;BME280;37146;48.210;16.234;2023-01-29T14:15:28;99600.97;;;-0.68;88.51
51099;BME280;37146;48.210;16.234;2023-01-29T14:20:20;99596.59;;;-0.65;87.32
51099;BME280;37146;48.210;16.234;2023-01-29T14:22:55;99594.78;;;-0.84;87.94
51099;BME280;37146;48.210;16.234;2023-01-29T14:25:21;99586.91;;;-0.73;88.31
51099;BME280;37146;48.210;16.234;2023-01-29T14:27:51;99583.38;;;-0.85;90.39
51099;BME280;37146;48.210;16.234;2023-01-29T14:30:16;99585.13;;;-0.90;88.23
51099;BME280;37146;48.210;16.234;2023-01-29T14:32:45;99583.41;;;-0.79;87.10
51099;BME280;37146;48.210;16.234;2023-01-29T14:37:44;99580.69;;;-1.02;88.79
51099;BME280;37146;48.210;16.234;2023-01-29T14:42:37;99593.81;;;-1.03;90.75
51099;BME280;37146;48.210;16.234;2023-01-29T14:50:00;99578.78;;;-1.29;90.31
51099;BME280;37146;48.210;16.234;2023-01-29T14:52:28;99585.81;;;-1.23;91.22
51099;BME280;37146;48.210;16.234;2023-01-29T14:54:58;99588.41;;;-1.33;91.64
51099;BME280;37146;48.210;16.234;2023-01-29T14:57:24;99590.13;;;-1.36;91.57
51099;BME280;37146;48.210;16.234;2023-01-29T15:00:04;99586.56;;;-1.48;93.76
51099;BME280;37146;48.210;16.234;2023-01-29T15:05:00;99590.09;;;-1.43;94.89
51099;BME280;37146;48.210;16.234;2023-01-29T15:07:29;99586.50;;;-1.54;95.08
51099;BME280;37146;48.210;16.234;2023-01-29T15:10:03;99600.50;;;-1.58;95.03
51099;BME280;37146;48.210;16.234;2023-01-29T15:15:24;99613.59;;;-1.57;95.69
51099;BME280;37146;48.210;16.234;2023-01-29T15:18:03;99606.53;;;-1.67;94.52
51099;BME280;37146;48.210;16.234;2023-01-29T15:22:56;99612.66;;;-1.69;96.75